createdAt,value
2023-01-09T00:00:25.595Z,85.34
2023-01-09T00:01:28.538Z,85.54
2023-01-09T00:02:30.077Z,85.27
2023-01-09T00:03:31.635Z,84.78
2023-01-09T00:04:33.205Z,84.55
2023-01-09T00:05:34.737Z,84.80
2023-01-09T00:06:36.307Z,85.28
2023-01-09T00:07:37.879Z,85.28
2023-01-09T00:08:39.460Z,85.37
2023-01-09T00:09:41.028Z,84.99
2023-01-09T00:10:42.555Z,84.94
2023-01-09T00:11:44.027Z,84.73
2023-01-09T00:12:45.543Z,84.79
2023-01-09T00:13:47.295Z,84.56
2023-01-09T00:14:48.845Z,84.39
2023-01-09T00:15:50.420Z,84.18
2023-01-09T00:16:54.118Z,84.75
2023-01-09T00:17:55.657Z,85.03
2023-01-09T00:18:57.165Z,85.17
2023-01-09T00:19:58.998Z,85.32
2023-01-09T00:21:00.995Z,85.02
2023-01-09T00:22:02.535Z,84.68
2023-01-09T00:23:04.100Z,85.70
2023-01-09T00:24:05.711Z,85.53
2023-01-09T00:25:07.404Z,85.35
2023-01-09T00:26:10.225Z,85.00
2023-01-09T00:27:12.379Z,85.09
2023-01-09T00:28:13.849Z,84.92
2023-01-09T00:29:15.418Z,85.05
2023-01-09T00:30:16.897Z,84.92
2023-01-09T00:31:18.408Z,85.15
2023-01-09T00:32:21.116Z,84.75
2023-01-09T00:33:24.492Z,84.75
2023-01-09T00:34:26.024Z,85.08
2023-01-09T00:35:27.785Z,84.85
2023-01-09T00:36:29.302Z,84.95
2023-01-09T00:37:30.804Z,85.53
2023-01-09T00:38:32.299Z,85.75
2023-01-09T00:39:33.850Z,86.01
2023-01-09T00:40:35.376Z,85.88
2023-01-09T00:41:38.107Z,86.01
2023-01-09T00:42:39.687Z,86.46
2023-01-09T00:43:43.225Z,86.82
2023-01-09T00:44:46.940Z,86.67
2023-01-09T00:45:48.586Z,86.26
2023-01-09T00:46:51.464Z,86.77
2023-01-09T00:47:52.945Z,87.02
2023-01-09T00:48:54.531Z,87.06
2023-01-09T00:49:56.094Z,87.60
2023-01-09T00:50:58.071Z,87.45
2023-01-09T00:51:59.604Z,86.86
2023-01-09T00:53:06.257Z,86.88
2023-01-09T00:54:07.982Z,87.26
2023-01-09T00:55:09.640Z,87.46
2023-01-09T00:56:12.166Z,87.43
2023-01-09T00:57:13.764Z,87.61
2023-01-09T00:58:15.307Z,87.63
2023-01-09T00:59:16.836Z,87.57
2023-01-09T01:00:18.773Z,87.40
2023-01-09T01:01:20.476Z,87.88
2023-01-09T01:02:22.256Z,87.56
2023-01-09T01:03:23.793Z,87.93
2023-01-09T01:04:43.763Z,87.78
2023-01-09T01:06:03.812Z,87.32
2023-01-09T01:07:23.668Z,87.15
2023-01-09T01:08:25.156Z,86.83
2023-01-09T01:09:26.620Z,86.78
2023-01-09T01:10:28.297Z,86.84
2023-01-09T01:11:29.774Z,86.63
2023-01-09T01:12:31.264Z,86.48
2023-01-09T01:13:32.806Z,86.33
2023-01-09T01:14:35.149Z,86.49
2023-01-09T01:15:38.719Z,86.85
2023-01-09T01:16:41.116Z,86.80
2023-01-09T01:17:42.738Z,86.58
2023-01-09T01:18:44.247Z,86.41
2023-01-09T01:19:45.808Z,86.12
2023-01-09T01:20:47.323Z,85.51
2023-01-09T01:21:48.794Z,85.82
2023-01-09T01:22:50.279Z,86.21
2023-01-09T01:23:51.816Z,86.47
2023-01-09T01:24:53.288Z,86.39
2023-01-09T01:25:54.775Z,85.90
2023-01-09T01:26:56.333Z,86.13
2023-01-09T01:27:57.809Z,86.66
2023-01-09T01:28:59.301Z,86.78
2023-01-09T01:30:00.811Z,86.69
2023-01-09T01:31:02.371Z,86.70
2023-01-09T01:32:04.014Z,86.54
2023-01-09T01:33:05.596Z,86.33
2023-01-09T01:34:07.111Z,86.28
2023-01-09T01:35:09.014Z,85.51
2023-01-09T01:36:10.519Z,85.23
2023-01-09T01:37:12.012Z,84.81
2023-01-09T01:38:13.488Z,84.93
2023-01-09T01:39:14.975Z,85.10
2023-01-09T01:40:16.468Z,85.27
2023-01-09T01:41:29.490Z,84.88
2023-01-09T01:42:31.245Z,85.31
2023-01-09T01:43:51.907Z,85.17
2023-01-09T01:44:56.217Z,84.67
2023-01-09T01:45:57.756Z,84.35
2023-01-09T01:46:59.236Z,84.39
2023-01-09T01:48:06.852Z,83.69
2023-01-09T01:49:12.245Z,83.35
2023-01-09T01:50:31.989Z,82.98
2023-01-09T01:51:33.903Z,82.57
2023-01-09T01:52:35.412Z,82.10
2023-01-09T01:53:38.615Z,81.66
2023-01-09T01:54:40.167Z,81.52
2023-01-09T01:55:43.230Z,81.42
2023-01-09T01:56:53.629Z,81.30
2023-01-09T01:57:55.990Z,81.31
2023-01-09T01:59:01.889Z,81.07
2023-01-09T02:00:03.616Z,80.46
2023-01-09T02:01:06.122Z,80.05
2023-01-09T02:02:07.909Z,80.24
2023-01-09T02:03:09.527Z,79.82
2023-01-09T02:04:11.000Z,79.23
2023-01-09T02:05:12.526Z,79.27
2023-01-09T02:06:14.085Z,79.65
2023-01-09T02:07:15.575Z,79.50
2023-01-09T02:08:17.113Z,79.01
2023-01-09T02:09:20.480Z,79.22
2023-01-09T02:10:25.448Z,79.26
2023-01-09T02:11:26.912Z,78.87
2023-01-09T02:12:28.738Z,79.13
2023-01-09T02:13:30.194Z,79.25
2023-01-09T02:14:32.957Z,78.71
2023-01-09T02:15:57.378Z,78.87
2023-01-09T02:17:10.798Z,78.55
2023-01-09T02:18:12.337Z,78.57
2023-01-09T02:19:13.787Z,78.25
2023-01-09T02:20:33.681Z,78.35
2023-01-09T02:21:51.711Z,77.98
2023-01-09T02:22:55.748Z,78.03
2023-01-09T02:24:00.156Z,78.14
2023-01-09T02:25:13.867Z,78.38
2023-01-09T02:26:34.123Z,78.28
2023-01-09T02:27:44.684Z,78.42
2023-01-09T02:29:04.916Z,78.10
2023-01-09T02:30:25.005Z,77.77
2023-01-09T02:31:26.541Z,77.51
2023-01-09T02:32:33.648Z,77.58
2023-01-09T02:33:53.558Z,77.66
2023-01-09T02:35:09.765Z,77.69
2023-01-09T02:36:11.289Z,77.50
2023-01-09T02:37:16.346Z,77.30
2023-01-09T02:38:23.702Z,77.14
2023-01-09T02:39:32.332Z,76.77
2023-01-09T02:40:34.982Z,76.59
2023-01-09T02:41:38.595Z,76.69
2023-01-09T02:42:40.172Z,76.63
2023-01-09T02:43:41.828Z,76.90
2023-01-09T02:44:44.494Z,76.23
2023-01-09T02:45:46.229Z,75.68
2023-01-09T02:46:47.878Z,75.83
2023-01-09T02:47:49.372Z,74.80
2023-01-09T02:48:51.137Z,74.96
2023-01-09T02:49:53.568Z,75.67
2023-01-09T02:51:01.328Z,75.86
2023-01-09T02:52:08.732Z,75.57
2023-01-09T02:53:17.807Z,75.41
2023-01-09T02:54:19.250Z,75.28
2023-01-09T02:55:40.995Z,75.30
2023-01-09T02:56:48.188Z,75.20
2023-01-09T02:57:52.536Z,75.29
2023-01-09T02:58:54.696Z,74.33
2023-01-09T03:00:14.894Z,74.59
2023-01-09T03:01:25.397Z,74.92
2023-01-09T03:02:29.369Z,74.92
2023-01-09T03:03:50.038Z,75.01
2023-01-09T03:04:54.179Z,74.99
2023-01-09T03:06:01.652Z,75.43
2023-01-09T03:07:05.816Z,74.83
2023-01-09T03:08:12.429Z,75.40
2023-01-09T03:09:15.200Z,75.22
2023-01-09T03:10:20.779Z,75.34
2023-01-09T03:11:22.319Z,75.34
2023-01-09T03:12:24.715Z,75.43
2023-01-09T03:13:26.590Z,75.75
2023-01-09T03:14:28.279Z,75.45
2023-01-09T03:15:30.746Z,75.62
2023-01-09T03:16:32.866Z,75.54
2023-01-09T03:17:37.783Z,75.42
2023-01-09T03:18:39.263Z,74.69
2023-01-09T03:19:40.798Z,74.73
2023-01-09T03:20:42.417Z,74.75
2023-01-09T03:21:43.936Z,75.16
2023-01-09T03:22:46.205Z,74.92
2023-01-09T03:23:56.864Z,74.52
2023-01-09T03:24:58.439Z,74.48
2023-01-09T03:25:59.931Z,74.63
2023-01-09T03:27:01.543Z,74.83
2023-01-09T03:28:04.677Z,74.95
2023-01-09T03:29:06.161Z,74.61
2023-01-09T03:30:08.108Z,74.48
2023-01-09T03:31:09.641Z,74.33
2023-01-09T03:32:11.184Z,74.33
2023-01-09T03:33:12.665Z,74.07
2023-01-09T03:34:14.146Z,73.99
2023-01-09T03:35:15.632Z,74.25
2023-01-09T03:36:17.449Z,74.15
2023-01-09T03:37:18.966Z,74.04
2023-01-09T03:38:20.409Z,74.12
2023-01-09T03:39:21.933Z,73.68
2023-01-09T03:40:23.641Z,73.57
2023-01-09T03:41:25.166Z,72.65
2023-01-09T03:42:26.655Z,73.03
2023-01-09T03:43:28.433Z,73.53
2023-01-09T03:44:29.918Z,72.90
2023-01-09T03:45:31.465Z,73.17
2023-01-09T03:46:32.967Z,73.46
2023-01-09T03:47:34.460Z,73.11
2023-01-09T03:48:35.991Z,72.89
2023-01-09T03:49:37.451Z,72.56
2023-01-09T03:50:38.898Z,72.81
2023-01-09T03:51:40.413Z,72.92
2023-01-09T03:52:41.888Z,72.44
2023-01-09T03:53:43.422Z,72.74
2023-01-09T03:54:44.924Z,72.94
2023-01-09T03:55:46.967Z,71.77
2023-01-09T03:56:48.486Z,72.30
2023-01-09T03:57:50.183Z,72.01
2023-01-09T03:58:53.269Z,72.06
2023-01-09T03:59:54.741Z,71.94
2023-01-09T04:00:59.991Z,72.16
2023-01-09T04:02:03.728Z,72.21
2023-01-09T04:03:05.650Z,72.12
2023-01-09T04:04:07.243Z,72.38
2023-01-09T04:05:09.093Z,72.48
2023-01-09T04:06:10.617Z,72.67
2023-01-09T04:07:12.203Z,72.50
2023-01-09T04:08:13.671Z,71.92
2023-01-09T04:09:15.184Z,71.44
2023-01-09T04:10:16.788Z,71.52
2023-01-09T04:11:18.314Z,71.47
2023-01-09T04:12:19.772Z,71.56
2023-01-09T04:13:21.281Z,70.74
2023-01-09T04:14:22.854Z,70.95
2023-01-09T04:15:24.411Z,71.01
2023-01-09T04:16:26.046Z,71.72
2023-01-09T04:17:27.544Z,70.84
2023-01-09T04:18:29.017Z,71.24
2023-01-09T04:19:30.616Z,71.31
2023-01-09T04:20:32.425Z,71.16
2023-01-09T04:21:33.869Z,71.18
2023-01-09T04:22:35.342Z,71.00
2023-01-09T04:23:37.263Z,70.92
2023-01-09T04:24:38.748Z,71.39
2023-01-09T04:25:40.296Z,71.05
2023-01-09T04:26:41.787Z,70.58
2023-01-09T04:27:43.248Z,70.35
2023-01-09T04:28:44.716Z,70.53
2023-01-09T04:29:46.295Z,70.65
2023-01-09T04:30:47.774Z,69.00
2023-01-09T04:31:49.282Z,69.63
2023-01-09T04:32:52.295Z,69.89
2023-01-09T04:33:53.793Z,69.71
2023-01-09T04:34:55.320Z,69.60
2023-01-09T04:35:56.896Z,69.93
2023-01-09T04:36:58.385Z,69.98
2023-01-09T04:38:00.863Z,69.39
2023-01-09T04:39:02.578Z,68.58
2023-01-09T04:40:10.778Z,69.04
2023-01-09T04:41:32.296Z,69.07
2023-01-09T04:42:33.839Z,68.96
2023-01-09T04:43:35.329Z,68.34
2023-01-09T04:44:36.928Z,68.70
2023-01-09T04:45:38.564Z,68.53
2023-01-09T04:46:40.043Z,69.38
2023-01-09T04:47:41.515Z,68.07
2023-01-09T04:48:43.040Z,68.58
2023-01-09T04:49:44.557Z,69.15
2023-01-09T04:50:46.022Z,69.13
2023-01-09T04:51:47.581Z,69.52
2023-01-09T04:52:49.060Z,69.06
2023-01-09T04:53:50.544Z,69.20
2023-01-09T04:54:52.132Z,69.04
2023-01-09T04:55:53.860Z,68.24
2023-01-09T04:56:55.409Z,68.88
2023-01-09T04:57:56.863Z,68.61
2023-01-09T04:58:58.354Z,68.47
2023-01-09T04:59:59.904Z,68.38
2023-01-09T05:01:01.593Z,68.01
2023-01-09T05:02:03.339Z,67.81
2023-01-09T05:03:05.245Z,67.81
2023-01-09T05:04:06.837Z,68.20
2023-01-09T05:05:11.373Z,67.87
2023-01-09T05:06:13.271Z,68.10
2023-01-09T05:07:14.790Z,67.68
2023-01-09T05:08:16.246Z,67.68
2023-01-09T05:09:17.736Z,68.11
2023-01-09T05:10:19.249Z,67.69
2023-01-09T05:11:20.721Z,67.64
2023-01-09T05:12:22.293Z,68.09
2023-01-09T05:13:23.795Z,67.70
2023-01-09T05:14:25.287Z,68.23
2023-01-09T05:15:28.403Z,68.33
2023-01-09T05:16:31.329Z,68.39
2023-01-09T05:17:32.841Z,68.80
2023-01-09T05:18:34.349Z,69.19
2023-01-09T05:19:35.896Z,68.86
2023-01-09T05:20:37.533Z,68.95
2023-01-09T05:21:39.041Z,68.47
2023-01-09T05:22:40.566Z,68.68
2023-01-09T05:23:42.117Z,68.20
2023-01-09T05:24:43.596Z,68.52
2023-01-09T05:25:45.136Z,69.07
2023-01-09T05:26:46.691Z,68.30
2023-01-09T05:27:48.190Z,68.65
2023-01-09T05:28:52.574Z,67.94
2023-01-09T05:29:54.130Z,68.23
2023-01-09T05:30:55.785Z,68.12
2023-01-09T05:31:57.416Z,67.51
2023-01-09T05:32:58.959Z,68.29
2023-01-09T05:34:00.881Z,68.35
2023-01-09T05:35:02.454Z,67.74
2023-01-09T05:36:04.105Z,67.31
2023-01-09T05:37:05.636Z,67.56
2023-01-09T05:38:07.158Z,67.46
2023-01-09T05:39:08.664Z,67.84
2023-01-09T05:40:10.517Z,66.94
2023-01-09T05:41:11.983Z,66.94
2023-01-09T05:42:13.473Z,66.35
2023-01-09T05:43:15.015Z,66.49
2023-01-09T05:44:16.530Z,66.23
2023-01-09T05:45:18.017Z,66.64
2023-01-09T05:46:19.584Z,66.22
2023-01-09T05:47:21.113Z,65.74
2023-01-09T05:48:22.605Z,65.92
2023-01-09T05:49:24.251Z,66.37
2023-01-09T05:50:25.733Z,66.09
2023-01-09T05:51:27.358Z,66.10
2023-01-09T05:52:29.050Z,65.73
2023-01-09T05:53:30.558Z,66.53
2023-01-09T05:54:32.019Z,65.89
2023-01-09T05:55:33.801Z,65.82
2023-01-09T05:56:35.292Z,65.57
2023-01-09T05:57:36.803Z,65.28
2023-01-09T05:58:38.311Z,65.80
2023-01-09T05:59:39.787Z,65.57
2023-01-09T06:00:41.253Z,65.88
2023-01-09T06:01:42.812Z,65.40
2023-01-09T06:02:44.493Z,65.56
2023-01-09T06:03:46.108Z,65.56
2023-01-09T06:04:47.594Z,66.03
2023-01-09T06:05:49.257Z,66.15
2023-01-09T06:06:50.832Z,65.61
2023-01-09T06:07:52.337Z,65.78
2023-01-09T06:08:53.847Z,65.47
2023-01-09T06:09:55.345Z,65.24
2023-01-09T06:10:56.815Z,65.43
2023-01-09T06:11:58.409Z,65.40
2023-01-09T06:12:59.929Z,65.63
2023-01-09T06:14:01.894Z,65.28
2023-01-09T06:15:03.463Z,65.47
2023-01-09T06:16:05.212Z,65.42
2023-01-09T06:17:06.719Z,65.57
2023-01-09T06:18:08.272Z,65.56
2023-01-09T06:19:09.773Z,65.45
2023-01-09T06:20:11.394Z,65.85
2023-01-09T06:21:12.942Z,65.96
2023-01-09T06:22:14.411Z,66.54
2023-01-09T06:23:15.885Z,66.43
2023-01-09T06:24:17.461Z,66.59
2023-01-09T06:25:19.593Z,66.60
2023-01-09T06:26:21.161Z,66.55
2023-01-09T06:27:22.631Z,66.69
2023-01-09T06:28:24.123Z,66.70
2023-01-09T06:29:25.661Z,66.88
2023-01-09T06:30:27.225Z,67.05
2023-01-09T06:31:28.750Z,67.14
2023-01-09T06:32:30.267Z,66.98
2023-01-09T06:33:32.237Z,66.92
2023-01-09T06:34:33.729Z,66.87
2023-01-09T06:35:35.261Z,67.13
2023-01-09T06:36:36.728Z,67.09
2023-01-09T06:37:38.177Z,67.43
2023-01-09T06:38:39.756Z,67.64
2023-01-09T06:39:41.235Z,67.77
2023-01-09T06:40:42.801Z,67.80
2023-01-09T06:41:47.049Z,68.03
2023-01-09T06:42:50.076Z,68.47
2023-01-09T06:43:51.572Z,68.39
2023-01-09T06:44:53.032Z,68.30
2023-01-09T06:45:54.656Z,68.58
2023-01-09T06:46:56.186Z,68.65
2023-01-09T06:47:57.650Z,68.51
2023-01-09T06:48:59.139Z,68.62
2023-01-09T06:50:00.625Z,69.00
2023-01-09T06:51:02.116Z,69.23
2023-01-09T06:52:05.745Z,69.13
2023-01-09T06:53:07.453Z,68.99
2023-01-09T06:54:08.892Z,68.95
2023-01-09T06:55:10.408Z,68.88
2023-01-09T06:56:11.977Z,69.04
2023-01-09T06:57:14.690Z,69.20
2023-01-09T06:58:16.272Z,69.32
2023-01-09T06:59:17.760Z,69.34
2023-01-09T07:00:19.315Z,69.37
2023-01-09T07:01:20.973Z,69.73
2023-01-09T07:02:22.607Z,69.75
2023-01-09T07:03:24.117Z,69.59
2023-01-09T07:04:25.737Z,69.38
2023-01-09T07:05:27.358Z,69.18
2023-01-09T07:06:28.857Z,69.05
2023-01-09T07:07:30.332Z,68.71
2023-01-09T07:08:31.977Z,69.05
2023-01-09T07:09:33.437Z,69.22
2023-01-09T07:10:34.946Z,69.36
2023-01-09T07:11:36.459Z,69.32
2023-01-09T07:12:37.960Z,69.61
2023-01-09T07:13:39.501Z,69.78
2023-01-09T07:14:40.977Z,70.02
2023-01-09T07:15:42.553Z,70.21
2023-01-09T07:16:44.100Z,70.22
2023-01-09T07:17:45.580Z,70.29
2023-01-09T07:18:47.153Z,70.30
2023-01-09T07:19:48.621Z,70.44
2023-01-09T07:20:50.113Z,70.81
2023-01-09T07:21:51.613Z,70.79
2023-01-09T07:22:53.963Z,70.78
2023-01-09T07:23:55.489Z,70.75
2023-01-09T07:24:57.049Z,70.63
2023-01-09T07:25:59.321Z,71.00
2023-01-09T07:27:01.028Z,70.97
2023-01-09T07:28:02.521Z,70.76
2023-01-09T07:29:04.073Z,70.35
2023-01-09T07:30:06.225Z,70.43
2023-01-09T07:31:07.806Z,70.80
2023-01-09T07:32:09.425Z,70.99
2023-01-09T07:33:10.887Z,71.44
2023-01-09T07:34:12.375Z,71.25
2023-01-09T07:35:13.919Z,71.23
2023-01-09T07:36:15.497Z,71.10
2023-01-09T07:37:17.188Z,70.66
2023-01-09T07:38:18.741Z,70.93
2023-01-09T07:39:20.229Z,70.84
2023-01-09T07:40:22.692Z,70.66
2023-01-09T07:41:24.250Z,70.58
2023-01-09T07:42:25.904Z,70.64
2023-01-09T07:43:27.463Z,70.45
2023-01-09T07:44:29.092Z,70.18
2023-01-09T07:45:30.567Z,70.11
2023-01-09T07:46:32.107Z,69.88
2023-01-09T07:47:33.689Z,69.73
2023-01-09T07:48:35.172Z,69.57
2023-01-09T07:49:36.677Z,69.51
2023-01-09T07:50:38.172Z,69.44
2023-01-09T07:51:43.027Z,69.14
2023-01-09T07:52:45.480Z,69.31
2023-01-09T07:53:47.014Z,68.98
2023-01-09T07:54:48.520Z,68.98
2023-01-09T07:55:50.017Z,69.05
2023-01-09T07:56:51.572Z,68.69
2023-01-09T07:57:53.062Z,68.88
2023-01-09T07:58:54.529Z,69.01
2023-01-09T07:59:56.165Z,68.75
2023-01-09T08:00:57.713Z,68.74
2023-01-09T08:01:59.287Z,68.64
2023-01-09T08:03:00.819Z,69.03
2023-01-09T08:04:02.551Z,69.10
2023-01-09T08:05:04.168Z,69.10
2023-01-09T08:06:05.786Z,69.37
2023-01-09T08:07:07.516Z,69.42
2023-01-09T08:08:09.019Z,69.69
2023-01-09T08:09:10.697Z,69.98
2023-01-09T08:10:12.247Z,69.96
2023-01-09T08:11:13.782Z,70.09
2023-01-09T08:12:15.279Z,70.27
2023-01-09T08:13:16.836Z,70.35
2023-01-09T08:14:18.346Z,70.42
2023-01-09T08:15:19.854Z,70.62
2023-01-09T08:16:21.427Z,70.49
2023-01-09T08:17:24.351Z,71.02
2023-01-09T08:18:26.672Z,71.00
2023-01-09T08:19:28.356Z,71.78
2023-01-09T08:20:29.858Z,72.30
2023-01-09T08:21:31.386Z,72.34
2023-01-09T08:22:32.857Z,72.38
2023-01-09T08:23:34.413Z,72.23
2023-01-09T08:24:36.689Z,72.60
2023-01-09T08:25:38.193Z,72.76
2023-01-09T08:26:39.849Z,72.88
2023-01-09T08:27:41.473Z,72.76
2023-01-09T08:28:42.964Z,72.47
2023-01-09T08:29:44.504Z,72.56
2023-01-09T08:30:46.693Z,72.64
2023-01-09T08:31:48.287Z,72.48
2023-01-09T08:32:53.274Z,72.98
2023-01-09T08:33:54.773Z,72.98
2023-01-09T08:34:56.311Z,72.94
2023-01-09T08:35:58.023Z,73.08
2023-01-09T08:36:59.579Z,73.47
2023-01-09T08:38:01.151Z,73.45
2023-01-09T08:39:02.648Z,73.75
2023-01-09T08:40:04.368Z,73.34
2023-01-09T08:41:25.921Z,73.04
2023-01-09T08:42:46.102Z,73.34
2023-01-09T08:44:06.085Z,73.19
2023-01-09T08:45:26.520Z,73.37
2023-01-09T08:46:46.842Z,72.92
2023-01-09T08:47:48.421Z,72.79
2023-01-09T08:48:49.936Z,72.64
2023-01-09T08:49:51.411Z,72.75
2023-01-09T08:50:54.252Z,72.62
2023-01-09T08:51:55.827Z,72.52
2023-01-09T08:52:57.333Z,72.31
2023-01-09T08:53:58.839Z,72.33
2023-01-09T08:55:00.319Z,72.44
2023-01-09T08:56:01.859Z,72.36
2023-01-09T08:57:03.398Z,72.27
2023-01-09T08:58:04.894Z,72.49
2023-01-09T08:59:06.344Z,72.39
2023-01-09T09:00:08.270Z,72.32
2023-01-09T09:01:09.727Z,72.28
2023-01-09T09:02:11.230Z,72.14
2023-01-09T09:03:12.879Z,72.10
2023-01-09T09:04:14.450Z,71.95
2023-01-09T09:05:16.200Z,72.18
2023-01-09T09:06:17.725Z,72.41
2023-01-09T09:07:30.837Z,72.14
2023-01-09T09:08:32.387Z,72.26
2023-01-09T09:09:33.956Z,72.51
2023-01-09T09:10:35.527Z,72.50
2023-01-09T09:11:37.020Z,72.83
2023-01-09T09:12:38.483Z,72.85
2023-01-09T09:13:40.026Z,72.74
2023-01-09T09:15:00.229Z,72.71
2023-01-09T09:16:01.776Z,72.55
2023-01-09T09:17:03.296Z,72.86
2023-01-09T09:18:05.386Z,72.72
2023-01-09T09:19:06.901Z,72.52
2023-01-09T09:20:09.818Z,72.27
2023-01-09T09:21:11.566Z,72.08
2023-01-09T09:22:13.109Z,72.24
2023-01-09T09:23:14.690Z,72.12
2023-01-09T09:24:16.143Z,72.03
2023-01-09T09:25:17.683Z,71.78
2023-01-09T09:26:19.248Z,71.90
2023-01-09T09:27:20.726Z,71.78
2023-01-09T09:28:22.278Z,71.60
2023-01-09T09:29:23.769Z,71.27
2023-01-09T09:30:25.239Z,71.57
2023-01-09T09:31:26.723Z,71.32
2023-01-09T09:32:28.402Z,70.95
2023-01-09T09:33:30.378Z,71.10
2023-01-09T09:34:32.061Z,71.12
2023-01-09T09:35:34.147Z,70.85
2023-01-09T09:36:35.732Z,71.21
2023-01-09T09:37:37.489Z,71.23
2023-01-09T09:38:38.993Z,71.40
2023-01-09T09:39:40.495Z,71.22
2023-01-09T09:40:41.937Z,71.29
2023-01-09T09:42:14.502Z,71.16
2023-01-09T09:43:37.566Z,71.04
2023-01-09T09:44:53.893Z,71.17
2023-01-09T09:46:01.777Z,71.17
2023-01-09T09:47:06.498Z,71.21
2023-01-09T09:48:07.968Z,71.33
2023-01-09T09:49:12.902Z,71.47
2023-01-09T09:50:14.415Z,71.31
2023-01-09T09:51:22.041Z,71.41
2023-01-09T09:52:26.373Z,71.05
2023-01-09T09:53:38.664Z,71.25
2023-01-09T09:54:40.945Z,71.23
2023-01-09T09:55:42.474Z,71.27
2023-01-09T09:56:53.351Z,71.39
2023-01-09T09:57:54.839Z,71.68
2023-01-09T09:58:57.581Z,71.51
2023-01-09T09:59:59.096Z,71.25
2023-01-09T10:01:00.585Z,71.50
2023-01-09T10:02:25.160Z,71.86
2023-01-09T10:03:33.980Z,72.16
2023-01-09T10:04:37.053Z,72.10
2023-01-09T10:05:40.706Z,72.15
2023-01-09T10:06:46.103Z,72.13
2023-01-09T10:07:48.209Z,72.07
2023-01-09T10:08:57.857Z,72.17
2023-01-09T10:10:00.626Z,72.35
2023-01-09T10:11:02.148Z,72.68
2023-01-09T10:12:22.049Z,72.41
2023-01-09T10:13:42.623Z,72.49
2023-01-09T10:14:44.151Z,72.65
2023-01-09T10:15:46.346Z,72.66
2023-01-09T10:16:51.841Z,72.37
2023-01-09T10:18:05.163Z,71.79
2023-01-09T10:19:06.661Z,71.93
2023-01-09T10:20:08.197Z,72.30
2023-01-09T10:21:12.820Z,72.21
2023-01-09T10:22:14.326Z,72.70
2023-01-09T10:23:31.944Z,72.66
2023-01-09T10:25:09.406Z,72.78
2023-01-09T10:26:18.853Z,72.72
2023-01-09T10:27:32.316Z,72.50
2023-01-09T10:28:42.450Z,72.67
2023-01-09T10:30:01.738Z,72.72
2023-01-09T10:31:22.325Z,72.89
2023-01-09T10:32:53.435Z,72.93
2023-01-09T10:33:54.940Z,73.25
2023-01-09T10:35:15.231Z,73.18
2023-01-09T10:36:16.722Z,72.90
2023-01-09T10:37:22.915Z,73.10
2023-01-09T10:38:29.186Z,72.79
2023-01-09T10:39:45.930Z,72.72
2023-01-09T10:40:49.767Z,72.50
2023-01-09T10:41:54.553Z,72.31
2023-01-09T10:42:58.558Z,71.99
2023-01-09T10:44:02.223Z,72.02
2023-01-09T10:45:07.987Z,71.44
2023-01-09T10:46:10.457Z,71.84
2023-01-09T10:47:32.273Z,71.37
2023-01-09T10:48:37.308Z,71.22
2023-01-09T10:49:38.803Z,70.92
2023-01-09T10:50:40.456Z,69.94
2023-01-09T10:51:51.532Z,70.78
2023-01-09T10:52:53.529Z,70.21
2023-01-09T10:53:55.385Z,70.45
2023-01-09T10:54:57.998Z,70.41
2023-01-09T10:56:01.233Z,70.16
2023-01-09T10:57:06.213Z,70.25
2023-01-09T10:58:14.024Z,69.93
2023-01-09T10:59:15.529Z,70.17
2023-01-09T11:00:18.037Z,70.42
2023-01-09T11:01:21.147Z,70.87
2023-01-09T11:02:32.281Z,70.87
2023-01-09T11:03:33.843Z,70.61
2023-01-09T11:04:36.566Z,69.98
2023-01-09T11:05:38.130Z,69.62
2023-01-09T11:06:46.622Z,69.68
2023-01-09T11:07:56.001Z,69.95
2023-01-09T11:08:57.543Z,69.88
2023-01-09T11:09:59.985Z,70.25
2023-01-09T11:11:02.092Z,70.25
2023-01-09T11:12:16.728Z,70.41
2023-01-09T11:13:21.302Z,70.22
2023-01-09T11:14:27.914Z,70.03
2023-01-09T11:15:29.447Z,70.36
2023-01-09T11:16:30.942Z,70.15
2023-01-09T11:17:32.450Z,70.62
2023-01-09T11:18:34.296Z,70.26
2023-01-09T11:19:35.795Z,70.38
2023-01-09T11:20:37.327Z,70.30
2023-01-09T11:21:40.603Z,70.37
2023-01-09T11:22:48.685Z,70.01
2023-01-09T11:23:50.430Z,70.25
2023-01-09T11:25:01.109Z,70.21
2023-01-09T11:26:02.672Z,70.34
2023-01-09T11:27:12.840Z,70.40
2023-01-09T11:28:14.377Z,70.30
2023-01-09T11:29:16.555Z,70.53
2023-01-09T11:30:20.273Z,70.68
2023-01-09T11:31:21.831Z,70.67
2023-01-09T11:32:23.620Z,70.63
2023-01-09T11:33:25.998Z,70.19
2023-01-09T11:34:28.461Z,70.24
2023-01-09T11:35:34.778Z,69.77
2023-01-09T11:36:36.482Z,69.91
2023-01-09T11:37:38.056Z,69.89
2023-01-09T11:38:49.572Z,69.97
2023-01-09T11:39:51.041Z,69.58
2023-01-09T11:40:53.662Z,69.40
2023-01-09T11:41:55.963Z,69.74
2023-01-09T11:43:03.283Z,69.73
2023-01-09T11:44:04.820Z,69.50
2023-01-09T11:45:06.699Z,69.45
2023-01-09T11:46:08.903Z,69.13
2023-01-09T11:47:26.817Z,69.17
2023-01-09T11:48:29.077Z,69.12
2023-01-09T11:49:31.044Z,69.54
2023-01-09T11:50:32.594Z,69.75
2023-01-09T11:51:34.699Z,69.94
2023-01-09T11:52:36.185Z,69.56
2023-01-09T11:53:54.753Z,69.85
2023-01-09T11:54:57.799Z,69.97
2023-01-09T11:56:01.198Z,70.06
2023-01-09T11:57:02.737Z,69.99
2023-01-09T11:58:04.336Z,69.99
2023-01-09T11:59:10.211Z,69.85
2023-01-09T12:00:20.796Z,70.01
2023-01-09T12:01:44.908Z,70.18
2023-01-09T12:03:03.104Z,70.03
2023-01-09T12:04:04.561Z,70.09
2023-01-09T12:05:20.432Z,70.55
2023-01-09T12:06:40.612Z,70.75
2023-01-09T12:07:57.551Z,71.09
2023-01-09T12:09:01.259Z,70.75
2023-01-09T12:10:02.705Z,70.50
2023-01-09T12:11:17.078Z,70.76
2023-01-09T12:12:18.930Z,70.38
2023-01-09T12:13:39.173Z,70.33
2023-01-09T12:14:43.791Z,69.78
2023-01-09T12:16:04.282Z,69.40
2023-01-09T12:17:05.769Z,69.65
2023-01-09T12:18:10.216Z,69.42
2023-01-09T12:19:15.945Z,69.48
2023-01-09T12:20:33.912Z,69.63
2023-01-09T12:21:56.933Z,69.45
2023-01-09T12:22:58.670Z,69.60
2023-01-09T12:24:03.185Z,69.41
2023-01-09T12:25:10.490Z,69.40
2023-01-09T12:26:23.092Z,69.44
2023-01-09T12:27:42.765Z,68.97
2023-01-09T12:28:47.082Z,69.31
2023-01-09T12:30:07.043Z,69.44
2023-01-09T12:31:47.205Z,68.74
2023-01-09T12:33:02.017Z,69.41
2023-01-09T12:34:11.630Z,69.35
2023-01-09T12:35:30.880Z,69.51
2023-01-09T12:36:33.169Z,69.05
2023-01-09T12:37:40.633Z,69.51
2023-01-09T12:38:54.959Z,69.27
2023-01-09T12:40:05.204Z,69.34
2023-01-09T12:41:10.273Z,68.89
2023-01-09T12:42:30.617Z,68.82
2023-01-09T12:43:44.209Z,68.99
2023-01-09T12:44:49.444Z,68.74
2023-01-09T12:45:59.782Z,69.12
2023-01-09T12:47:11.907Z,69.11
2023-01-09T12:48:24.322Z,69.37
2023-01-09T12:49:35.285Z,69.43
2023-01-09T12:50:56.022Z,69.40
2023-01-09T12:52:01.406Z,69.28
2023-01-09T12:53:07.650Z,69.38
2023-01-09T12:54:14.983Z,69.38
2023-01-09T12:55:20.541Z,69.17
2023-01-09T12:56:23.765Z,69.38
2023-01-09T12:57:27.337Z,69.14
2023-01-09T12:58:31.456Z,68.41
2023-01-09T12:59:42.996Z,68.29
2023-01-09T13:00:45.582Z,68.53
2023-01-09T13:01:47.899Z,68.69
2023-01-09T13:03:07.148Z,68.65
2023-01-09T13:04:17.373Z,68.45
2023-01-09T13:05:23.185Z,68.05
2023-01-09T13:06:24.697Z,67.97
2023-01-09T13:07:30.669Z,67.92
2023-01-09T13:08:32.225Z,68.06
2023-01-09T13:09:44.319Z,68.15
2023-01-09T13:10:46.247Z,68.31
2023-01-09T13:11:49.190Z,68.14
2023-01-09T13:12:50.691Z,68.22
2023-01-09T13:14:05.677Z,68.40
2023-01-09T13:15:30.418Z,68.50
2023-01-09T13:16:42.151Z,68.24
2023-01-09T13:17:46.696Z,68.23
2023-01-09T13:18:49.857Z,68.29
2023-01-09T13:19:53.204Z,68.04
2023-01-09T13:20:58.022Z,68.18
2023-01-09T13:21:59.540Z,68.05
2023-01-09T13:23:01.610Z,68.36
2023-01-09T13:24:08.158Z,67.63
2023-01-09T13:25:28.332Z,67.34
2023-01-09T13:26:29.767Z,67.02
2023-01-09T13:27:32.121Z,67.38
2023-01-09T13:28:36.087Z,66.82
2023-01-09T13:29:38.359Z,66.56
2023-01-09T13:30:43.757Z,66.74
2023-01-09T13:31:57.384Z,65.74
2023-01-09T13:33:01.953Z,66.12
2023-01-09T13:34:04.536Z,66.69
2023-01-09T13:35:12.430Z,66.83
2023-01-09T13:36:21.537Z,66.21
2023-01-09T13:37:26.322Z,66.55
2023-01-09T13:38:28.273Z,66.27
2023-01-09T13:39:38.237Z,66.63
2023-01-09T13:40:39.725Z,66.14
2023-01-09T13:42:06.727Z,65.40
2023-01-09T13:43:21.821Z,66.25
2023-01-09T13:44:28.759Z,66.81
2023-01-09T13:45:30.957Z,66.49
2023-01-09T13:46:37.024Z,66.28